Time;durP1;ratioP1;P1;durP2;ratioP2;P2;SDS_P1;SDS_P2;PMS_P1;PMS_P2;Temp;Humidity;BMP_temperature;BMP_pressure;BME280_temperature;BME280_humidity;BME280_pressure;Samples;Min_cycle;Max_cycle;Signal;HPM_P1;HPM_P2
2022/02/21 00:02:21;;;;;;;;;;;27.80;96.20;;;;;;5072855;28;19962;-71
2022/02/21 00:04:48;;;;;;;;;;;27.80;96.00;;;;;;5072855;28;19912;-71
2022/02/21 00:07:15;;;;;;;;;;;27.90;95.90;;;;;;5072879;28;19909;-72
2022/02/21 00:09:41;;;;;;;;;;;28.00;95.40;;;;;;5072970;28;20423;-71
2022/02/21 00:12:09;;;;;;;;;;;28.10;94.90;;;;;;5072640;28;19923;-72
2022/02/21 00:14:37;;;;;;;;;;;28.10;94.90;;;;;;5072818;28;20390;-72
2022/02/21 00:17:04;;;;;;;;;;;28.10;95.50;;;;;;5072933;28;19909;-71
2022/02/21 00:19:30;;;;;;;;;;;28.20;94.70;;;;;;5072520;28;19916;-71
2022/02/21 00:21:57;;;;;;;;;;;28.30;95.10;;;;;;5072456;28;20325;-71
2022/02/21 00:24:24;;;;;;;;;;;28.50;95.40;;;;;;5072675;28;19912;-72
2022/02/21 00:26:50;;;;;;;;;;;28.70;94.20;;;;;;5105428;28;19909;-72
2022/02/21 00:29:17;;;;;;;;;;;28.60;94.80;;;;;;5072790;28;19947;-71
2022/02/21 00:31:43;;;;;;;;;;;28.50;94.50;;;;;;5072590;28;20023;-71
2022/02/21 00:34:10;;;;;;;;;;;28.70;94.90;;;;;;5072346;28;19919;-71
2022/02/21 00:36:37;;;;;;;;;;;28.70;94.70;;;;;;5072480;28;20007;-71
2022/02/21 00:39:03;;;;;;;;;;;28.70;94.50;;;;;;5072386;28;20385;-71
2022/02/21 00:41:30;;;;;;;;;;;28.70;94.60;;;;;;5104805;28;19909;-71
2022/02/21 00:43:57;;;;;;;;;;;28.90;94.50;;;;;;5072354;28;19938;-70
2022/02/21 00:46:23;;;;;;;;;;;29.00;94.10;;;;;;5072589;28;19908;-71
2022/02/21 00:48:50;;;;;;;;;;;29.00;94.10;;;;;;5072690;28;19909;-71
2022/02/21 00:51:17;;;;;;;;;;;29.00;94.30;;;;;;5071378;28;19948;-71
2022/02/21 00:53:44;;;;;;;;;;;29.10;94.00;;;;;;5075630;28;19908;-73
2022/02/21 00:56:11;;;;;;;;;;;29.10;94.00;;;;;;5076416;28;20012;-72
2022/02/21 00:58:37;;;;;;;;;;;29.30;93.50;;;;;;5076242;28;19923;-73
2022/02/21 01:01:04;;;;;;;;;;;29.40;93.70;;;;;;5076330;28;19960;-72
2022/02/21 01:03:31;;;;;;;;;;;29.50;93.70;;;;;;5108896;28;19998;-72
2022/02/21 01:05:57;;;;;;;;;;;29.50;93.40;;;;;;5075305;28;20433;-72
2022/02/21 01:08:24;;;;;;;;;;;29.70;93.10;;;;;;5076427;28;19914;-72
2022/02/21 01:10:51;;;;;;;;;;;29.90;93.30;;;;;;5076089;28;20331;-72
2022/02/21 01:13:17;;;;;;;;;;;30.10;92.90;;;;;;5076219;28;19940;-72
2022/02/21 01:15:44;;;;;;;;;;;30.10;92.80;;;;;;5075883;28;19951;-72
2022/02/21 01:18:14;;;;;;;;;;;30.10;92.60;;;;;;5075988;28;19920;-71
2022/02/21 01:20:41;;;;;;;;;;;30.00;92.70;;;;;;5076066;28;19915;-71
2022/02/21 01:23:07;;;;;;;;;;;30.10;92.70;;;;;;5075705;28;19987;-71
2022/02/21 01:25:34;;;;;;;;;;;29.90;92.80;;;;;;5075913;28;19909;-71
2022/02/21 01:28:01;;;;;;;;;;;29.80;92.60;;;;;;5075642;28;19908;-71
2022/02/21 01:30:27;;;;;;;;;;;29.80;93.70;;;;;;5076002;28;19912;-72
2022/02/21 01:32:55;;;;;;;;;;;29.80;93.80;;;;;;5075787;28;19909;-71
2022/02/21 01:35:22;;;;;;;;;;;29.70;94.50;;;;;;5075697;28;19963;-72
2022/02/21 01:37:49;;;;;;;;;;;29.60;93.90;;;;;;5075077;28;19909;-72
2022/02/21 01:40:16;;;;;;;;;;;29.50;93.70;;;;;;5075658;28;19919;-72
2022/02/21 01:42:42;;;;;;;;;;;29.50;94.00;;;;;;5075485;28;19966;-72
2022/02/21 01:45:09;;;;;;;;;;;29.50;94.40;;;;;;5075606;28;20362;-72
2022/02/21 01:47:36;;;;;;;;;;;29.60;94.30;;;;;;5075312;28;19908;-72
2022/02/21 01:50:03;;;;;;;;;;;29.90;94.20;;;;;;5075343;28;19909;-72
2022/02/21 01:52:30;;;;;;;;;;;30.20;93.60;;;;;;5075273;28;19985;-72
2022/02/21 01:54:57;;;;;;;;;;;30.50;93.90;;;;;;5075461;28;20460;-72
2022/02/21 01:57:26;;;;;;;;;;;30.40;93.70;;;;;;5075399;28;19915;-72
2022/02/21 01:59:53;;;;;;;;;;;30.20;94.50;;;;;;5074920;28;19925;-71
2022/02/21 02:02:20;;;;;;;;;;;30.10;94.70;;;;;;5075281;28;20282;-72
2022/02/21 02:04:46;;;;;;;;;;;30.10;95.00;;;;;;5074736;28;19908;-71
2022/02/21 02:07:14;;;;;;;;;;;30.10;95.00;;;;;;5075062;28;20329;-72
2022/02/21 02:09:41;;;;;;;;;;;30.00;94.60;;;;;;5075283;28;19909;-72
2022/02/21 02:12:09;;;;;;;;;;;29.80;93.90;;;;;;5075039;28;19919;-72
2022/02/21 02:14:39;;;;;;;;;;;29.50;94.10;;;;;;5090486;28;19912;-72
2022/02/21 02:17:10;;;;;;;;;;;29.40;95.10;;;;;;5075185;28;19909;-73
2022/02/21 02:19:37;;;;;;;;;;;29.40;95.40;;;;;;5074961;28;19970;-72
2022/02/21 02:22:13;;;;;;;;;;;29.40;95.60;;;;;;5107053;28;19909;-72
2022/02/21 02:24:40;;;;;;;;;;;29.30;95.90;;;;;;5074955;28;20034;-72
2022/02/21 02:27:10;;;;;;;;;;;29.20;95.50;;;;;;5075055;28;20367;-72
2022/02/21 02:29:42;;;;;;;;;;;29.20;95.50;;;;;;5074833;28;19950;-72
2022/02/21 02:32:09;;;;;;;;;;;29.00;95.80;;;;;;5074842;28;19916;-72
2022/02/21 02:34:38;;;;;;;;;;;29.00;95.70;;;;;;5074663;28;19908;-72
2022/02/21 02:37:04;;;;;;;;;;;28.90;96.30;;;;;;5074723;28;19944;-71
2022/02/21 02:39:31;;;;;;;;;;;28.80;96.50;;;;;;5074454;28;19916;-72
2022/02/21 02:41:58;;;;;;;;;;;28.70;96.10;;;;;;5074408;28;19912;-71
2022/02/21 02:44:25;;;;;;;;;;;28.60;96.70;;;;;;5074654;28;20348;-71
2022/02/21 02:46:51;;;;;;;;;;;28.50;97.20;;;;;;5074573;28;19915;-72
2022/02/21 02:49:18;;;;;;;;;;;28.30;97.10;;;;;;5074485;28;19912;-71
2022/02/21 02:51:45;;;;;;;;;;;28.30;97.60;;;;;;5074382;28;20114;-70
2022/02/21 02:54:12;;;;;;;;;;;28.20;98.10;;;;;;5074435;28;19931;-70
2022/02/21 02:56:39;;;;;;;;;;;28.30;98.60;;;;;;5074347;28;20381;-70
2022/02/21 02:59:06;;;;;;;;;;;28.40;98.70;;;;;;5073985;28;19916;-70
2022/02/21 03:01:33;;;;;;;;;;;28.30;98.90;;;;;;5074255;28;19920;-71
2022/02/21 03:04:02;;;;;;;;;;;28.30;98.80;;;;;;5073948;28;19995;-71
2022/02/21 03:06:29;;;;;;;;;;;28.10;98.90;;;;;;5074176;28;19909;-73
2022/02/21 03:08:56;;;;;;;;;;;28.00;99.00;;;;;;5072797;28;20398;-71
2022/02/21 03:11:23;;;;;;;;;;;27.90;99.00;;;;;;5073964;28;19995;-71
2022/02/21 03:13:50;;;;;;;;;;;27.80;99.60;;;;;;5074245;28;19908;-71
2022/02/21 03:16:17;;;;;;;;;;;27.70;99.90;;;;;;5073951;28;19909;-71
2022/02/21 03:18:44;;;;;;;;;;;27.80;99.90;;;;;;5073887;28;19916;-71
2022/02/21 03:21:11;;;;;;;;;;;27.80;99.90;;;;;;5073695;28;19912;-71
2022/02/21 03:23:38;;;;;;;;;;;27.90;99.90;;;;;;5074306;28;20003;-71
2022/02/21 03:26:04;;;;;;;;;;;27.90;99.90;;;;;;5073821;28;19908;-72
2022/02/21 03:28:32;;;;;;;;;;;27.90;99.90;;;;;;5073674;28;20003;-72
2022/02/21 03:30:58;;;;;;;;;;;27.80;99.90;;;;;;5074244;28;19919;-71
2022/02/21 03:33:29;;;;;;;;;;;27.70;99.90;;;;;;5074362;28;20010;-71
2022/02/21 03:35:56;;;;;;;;;;;27.70;99.90;;;;;;5074371;28;19954;-72
2022/02/21 03:38:23;;;;;;;;;;;27.70;99.90;;;;;;5106165;28;20423;-72
2022/02/21 03:40:52;;;;;;;;;;;27.60;99.90;;;;;;5105251;28;19944;-71
2022/02/21 03:43:19;;;;;;;;;;;27.50;99.90;;;;;;5073209;28;19909;-71
2022/02/21 03:45:46;;;;;;;;;;;27.50;99.90;;;;;;5105941;28;19912;-72
2022/02/21 03:48:13;;;;;;;;;;;27.60;99.90;;;;;;5073309;28;20007;-71
2022/02/21 03:50:40;;;;;;;;;;;27.70;99.90;;;;;;5072957;28;19912;-71
2022/02/21 03:53:07;;;;;;;;;;;27.70;99.90;;;;;;5073191;28;19916;-71
2022/02/21 03:55:33;;;;;;;;;;;27.70;99.90;;;;;;5073061;28;19909;-71
2022/02/21 03:58:00;;;;;;;;;;;27.90;99.90;;;;;;5072521;28;19926;-71
2022/02/21 04:00:27;;;;;;;;;;;27.90;99.90;;;;;;5072775;28;20019;-71
2022/02/21 04:02:53;;;;;;;;;;;27.90;99.90;;;;;;5073240;28;19912;-72
2022/02/21 04:05:20;;;;;;;;;;;27.90;99.90;;;;;;5072803;28;19908;-72
2022/02/21 04:07:47;;;;;;;;;;;27.90;99.90;;;;;;5072778;28;19916;-71
2022/02/21 04:10:15;;;;;;;;;;;28.00;99.90;;;;;;5072585;28;19908;-72
2022/02/21 04:12:42;;;;;;;;;;;28.20;99.90;;;;;;5072652;28;20516;-72
2022/02/21 04:15:09;;;;;;;;;;;28.10;99.90;;;;;;5073032;28;19909;-71
2022/02/21 04:17:42;;;;;;;;;;;28.10;99.90;;;;;;5071977;28;20003;-71
2022/02/21 04:20:10;;;;;;;;;;;27.90;99.90;;;;;;5072423;28;20286;-72
2022/02/21 04:22:37;;;;;;;;;;;27.80;99.90;;;;;;5072374;28;19908;-72
2022/02/21 04:25:05;;;;;;;;;;;27.80;99.90;;;;;;5072379;28;19915;-72
2022/02/21 04:27:39;;;;;;;;;;;27.80;99.90;;;;;;5072632;28;19908;-71
2022/02/21 04:30:05;;;;;;;;;;;27.60;99.90;;;;;;5072056;28;19909;-71
2022/02/21 04:32:32;;;;;;;;;;;27.50;99.90;;;;;;5072803;28;19912;-71
2022/02/21 04:34:59;;;;;;;;;;;27.50;99.90;;;;;;5072427;28;20090;-71
2022/02/21 04:37:25;;;;;;;;;;;27.50;99.90;;;;;;5072381;28;19939;-71
2022/02/21 04:39:52;;;;;;;;;;;27.50;99.90;;;;;;5072382;28;19959;-72
2022/02/21 04:42:19;;;;;;;;;;;27.60;99.90;;;;;;5072499;28;19984;-72
2022/02/21 04:44:45;;;;;;;;;;;27.60;99.90;;;;;;5072322;28;20355;-72
2022/02/21 04:47:12;;;;;;;;;;;27.60;99.90;;;;;;5072334;28;19961;-72
2022/02/21 04:49:42;;;;;;;;;;;27.70;99.90;;;;;;5072685;28;19931;-73
2022/02/21 04:52:09;;;;;;;;;;;27.60;99.90;;;;;;5070925;28;19909;-71
2022/02/21 04:54:35;;;;;;;;;;;27.60;99.90;;;;;;5072002;28;20220;-71
2022/02/21 04:57:02;;;;;;;;;;;27.50;99.90;;;;;;5072239;28;19915;-71
2022/02/21 04:59:29;;;;;;;;;;;27.50;99.90;;;;;;5072230;28;20847;-71
2022/02/21 05:01:55;;;;;;;;;;;27.50;99.90;;;;;;5071990;28;19917;-70
2022/02/21 05:04:22;;;;;;;;;;;27.60;99.90;;;;;;5072183;28;20282;-70
2022/02/21 05:06:49;;;;;;;;;;;27.50;99.90;;;;;;5071878;28;19909;-71
2022/02/21 05:09:16;;;;;;;;;;;27.50;99.90;;;;;;5072201;28;19916;-71
2022/02/21 05:11:42;;;;;;;;;;;27.50;99.90;;;;;;5104275;28;19947;-70
2022/02/21 05:14:09;;;;;;;;;;;27.60;99.90;;;;;;5071885;28;19915;-71
2022/02/21 05:16:36;;;;;;;;;;;27.70;99.90;;;;;;5072208;28;19995;-72
2022/02/21 05:19:02;;;;;;;;;;;27.70;99.90;;;;;;5072063;28;19923;-72
2022/02/21 05:21:29;;;;;;;;;;;27.70;99.90;;;;;;5071930;28;20283;-72
2022/02/21 05:23:56;;;;;;;;;;;27.70;99.90;;;;;;5071943;28;19909;-72
2022/02/21 05:26:23;;;;;;;;;;;27.60;99.90;;;;;;5071870;28;19909;-71
2022/02/21 05:28:50;;;;;;;;;;;27.50;99.90;;;;;;5104573;28;20353;-72
2022/02/21 05:31:17;;;;;;;;;;;27.40;99.90;;;;;;5072060;28;20278;-71
2022/02/21 05:33:44;;;;;;;;;;;27.30;99.90;;;;;;5072072;28;19909;-72
2022/02/21 05:36:10;;;;;;;;;;;27.20;99.90;;;;;;5071575;28;20000;-70
2022/02/21 05:38:37;;;;;;;;;;;27.10;99.90;;;;;;5072992;28;19916;-71
2022/02/21 05:41:04;;;;;;;;;;;26.90;99.90;;;;;;5075530;28;20007;-71
2022/02/21 05:43:30;;;;;;;;;;;26.80;99.90;;;;;;5075675;28;20278;-71
2022/02/21 05:45:57;;;;;;;;;;;26.70;99.90;;;;;;5075334;28;19908;-71
2022/02/21 05:48:24;;;;;;;;;;;26.80;99.90;;;;;;5075400;28;19909;-70
2022/02/21 05:50:50;;;;;;;;;;;26.80;99.90;;;;;;5074505;28;20487;-70
2022/02/21 05:53:17;;;;;;;;;;;26.70;99.90;;;;;;5073159;28;20272;-70
2022/02/21 05:55:43;;;;;;;;;;;26.60;99.90;;;;;;5073165;28;19913;-70
2022/02/21 05:58:10;;;;;;;;;;;26.50;99.90;;;;;;5072907;28;19931;-71
2022/02/21 06:00:37;;;;;;;;;;;26.40;99.90;;;;;;5072847;28;20413;-70
2022/02/21 06:03:03;;;;;;;;;;;26.40;99.90;;;;;;5073219;28;19908;-70
2022/02/21 06:05:30;;;;;;;;;;;26.40;99.90;;;;;;5072562;28;19915;-70
2022/02/21 06:07:57;;;;;;;;;;;26.40;99.90;;;;;;5072547;28;19908;-71
2022/02/21 06:10:24;;;;;;;;;;;26.40;99.90;;;;;;5072974;28;19912;-71
2022/02/21 06:12:50;;;;;;;;;;;26.30;99.90;;;;;;5072882;28;19916;-71
2022/02/21 06:15:17;;;;;;;;;;;26.40;99.90;;;;;;5072956;28;19926;-71
2022/02/21 06:17:43;;;;;;;;;;;26.40;99.90;;;;;;5072418;28;19951;-71
2022/02/21 06:20:10;;;;;;;;;;;26.40;99.90;;;;;;5072237;28;20019;-71
2022/02/21 06:22:37;;;;;;;;;;;26.30;99.90;;;;;;5072769;28;19909;-71
2022/02/21 06:25:04;;;;;;;;;;;26.20;99.90;;;;;;5072676;28;19908;-71
2022/02/21 06:27:31;;;;;;;;;;;26.10;99.90;;;;;;5072475;28;19931;-71
2022/02/21 06:29:57;;;;;;;;;;;26.00;99.90;;;;;;5072172;28;19962;-71
2022/02/21 06:32:25;;;;;;;;;;;25.90;99.90;;;;;;5072277;28;20310;-71
2022/02/21 06:34:52;;;;;;;;;;;25.90;99.90;;;;;;5072681;28;19908;-71
2022/02/21 06:37:19;;;;;;;;;;;25.90;99.90;;;;;;5072481;28;19912;-72
2022/02/21 06:39:45;;;;;;;;;;;25.80;99.90;;;;;;5072223;28;19947;-71
2022/02/21 06:42:12;;;;;;;;;;;25.70;99.90;;;;;;5072287;28;19908;-71
2022/02/21 06:44:39;;;;;;;;;;;25.60;99.90;;;;;;5072139;28;20015;-72
2022/02/21 06:47:05;;;;;;;;;;;25.60;99.90;;;;;;5072497;28;19916;-72
2022/02/21 06:49:32;;;;;;;;;;;25.60;99.90;;;;;;5071478;28;19958;-72
2022/02/21 06:51:59;;;;;;;;;;;25.60;99.90;;;;;;5071764;28;19913;-72
2022/02/21 06:54:26;;;;;;;;;;;25.50;99.90;;;;;;5072518;28;19951;-72
2022/02/21 06:56:52;;;;;;;;;;;25.40;99.90;;;;;;5071890;28;19916;-72
2022/02/21 06:59:19;;;;;;;;;;;25.40;99.90;;;;;;5071905;28;20013;-72
2022/02/21 07:01:46;;;;;;;;;;;25.30;99.90;;;;;;5071904;28;19970;-72
2022/02/21 07:04:12;;;;;;;;;;;25.30;99.90;;;;;;5071899;28;20375;-71
2022/02/21 07:06:42;;;;;;;;;;;25.30;99.90;;;;;;5071864;28;19966;-72
2022/02/21 07:09:14;;;;;;;;;;;25.30;99.90;;;;;;5071821;28;20373;-72
2022/02/21 07:14:39;;;;;;;;;;;25.30;99.90;;;;;;5067455;28;19908;-72
2022/02/21 07:17:06;;;;;;;;;;;25.10;99.90;;;;;;5073101;28;19979;-71
2022/02/21 07:19:34;;;;;;;;;;;24.90;99.90;;;;;;5071890;28;19943;-72
2022/02/21 07:22:01;;;;;;;;;;;24.80;99.90;;;;;;5072964;28;19908;-72
2022/02/21 07:24:27;;;;;;;;;;;24.60;99.90;;;;;;5072727;28;20015;-72
2022/02/21 07:26:55;;;;;;;;;;;24.50;99.90;;;;;;5072484;28;20673;-71
2022/02/21 07:29:22;;;;;;;;;;;24.50;99.90;;;;;;5071438;28;19908;-71
2022/02/21 07:31:50;;;;;;;;;;;24.40;99.90;;;;;;5071410;28;19915;-71
2022/02/21 07:34:16;;;;;;;;;;;24.30;99.90;;;;;;5071316;28;20323;-72
2022/02/21 07:36:43;;;;;;;;;;;24.30;99.90;;;;;;5070954;28;20363;-71
2022/02/21 07:39:10;;;;;;;;;;;24.20;99.90;;;;;;5071371;28;20015;-71
2022/02/21 07:41:42;;;;;;;;;;;24.10;99.90;;;;;;5104036;28;19985;-71
2022/02/21 07:44:09;;;;;;;;;;;24.10;99.90;;;;;;5071323;28;19962;-72
2022/02/21 07:46:35;;;;;;;;;;;24.10;99.90;;;;;;5071451;28;19999;-71
2022/02/21 07:49:02;;;;;;;;;;;24.00;99.90;;;;;;5070766;28;19999;-72
2022/02/21 07:51:30;;;;;;;;;;;23.80;99.90;;;;;;5071119;28;19908;-72
2022/02/21 07:53:57;;;;;;;;;;;23.70;99.90;;;;;;5070796;28;19909;-72
2022/02/21 07:56:23;;;;;;;;;;;23.70;99.90;;;;;;5070967;28;19916;-73
2022/02/21 07:58:50;;;;;;;;;;;23.70;99.90;;;;;;5070955;28;19921;-72
2022/02/21 08:01:17;;;;;;;;;;;23.70;99.90;;;;;;5070677;28;19920;-72
2022/02/21 08:03:43;;;;;;;;;;;23.70;99.90;;;;;;5070338;28;19912;-72
2022/02/21 08:06:10;;;;;;;;;;;23.60;99.90;;;;;;5072071;28;19974;-72
2022/02/21 08:08:38;;;;;;;;;;;23.50;99.90;;;;;;5072884;28;19908;-72
2022/02/21 08:11:05;;;;;;;;;;;23.50;99.90;;;;;;5072993;28;19915;-72
2022/02/21 08:13:31;;;;;;;;;;;23.50;99.90;;;;;;5072880;28;19913;-72
2022/02/21 08:15:58;;;;;;;;;;;23.40;99.90;;;;;;5072509;28;19920;-72
2022/02/21 08:18:26;;;;;;;;;;;23.50;99.90;;;;;;5072566;28;19912;-71
2022/02/21 08:20:53;;;;;;;;;;;23.60;99.90;;;;;;5072350;28;19931;-70
2022/02/21 08:23:20;;;;;;;;;;;23.50;99.90;;;;;;5072488;28;19908;-71
2022/02/21 08:25:47;;;;;;;;;;;23.50;99.90;;;;;;5072327;28;19915;-72
2022/02/21 08:28:14;;;;;;;;;;;23.40;99.90;;;;;;5072675;28;19908;-71
2022/02/21 08:30:41;;;;;;;;;;;23.40;99.90;;;;;;5104919;28;20383;-71
2022/02/21 08:33:07;;;;;;;;;;;23.40;99.90;;;;;;5072614;28;20128;-71
2022/02/21 08:35:34;;;;;;;;;;;23.40;99.90;;;;;;5072280;28;20424;-71
2022/02/21 08:38:02;;;;;;;;;;;23.30;99.90;;;;;;5072027;28;19915;-70
2022/02/21 08:40:28;;;;;;;;;;;23.40;99.90;;;;;;5072306;28;19997;-70
2022/02/21 08:42:55;;;;;;;;;;;23.40;99.90;;;;;;5072277;28;20421;-71
2022/02/21 08:45:22;;;;;;;;;;;23.40;99.90;;;;;;5072458;28;19912;-71
2022/02/21 08:47:48;;;;;;;;;;;23.40;99.90;;;;;;5072384;28;19912;-71
2022/02/21 08:50:16;;;;;;;;;;;23.30;99.90;;;;;;5072359;28;19909;-71
2022/02/21 08:52:43;;;;;;;;;;;23.20;99.90;;;;;;5072363;28;19920;-71
2022/02/21 08:55:12;;;;;;;;;;;23.20;99.90;;;;;;5072159;28;19961;-71
2022/02/21 08:57:39;;;;;;;;;;;23.30;99.90;;;;;;5072222;28;19912;-71
2022/02/21 09:00:07;;;;;;;;;;;23.30;99.90;;;;;;5071682;28;19925;-71
2022/02/21 09:02:36;;;;;;;;;;;23.40;99.90;;;;;;5072172;28;20058;-72
2022/02/21 09:05:04;;;;;;;;;;;23.40;99.90;;;;;;5071932;28;19909;-71
2022/02/21 09:07:30;;;;;;;;;;;23.20;99.90;;;;;;5072303;28;20381;-71
2022/02/21 09:09:58;;;;;;;;;;;23.20;99.90;;;;;;5072034;28;20283;-71
2022/02/21 09:12:26;;;;;;;;;;;23.10;99.90;;;;;;5072227;28;19954;-71
2022/02/21 09:14:56;;;;;;;;;;;23.10;99.90;;;;;;5075614;28;19908;-71
2022/02/21 09:17:23;;;;;;;;;;;23.10;99.90;;;;;;5076088;28;19915;-71
2022/02/21 09:19:49;;;;;;;;;;;23.10;99.90;;;;;;5075704;28;19917;-71
2022/02/21 09:22:16;;;;;;;;;;;23.10;99.90;;;;;;5074150;28;19912;-72
2022/02/21 09:24:43;;;;;;;;;;;23.00;99.90;;;;;;5107870;27;20540;-72
2022/02/21 09:27:10;;;;;;;;;;;22.90;99.90;;;;;;5075814;28;19909;-72
2022/02/21 09:29:36;;;;;;;;;;;22.70;99.90;;;;;;5075165;28;19909;-72
2022/02/21 09:32:03;;;;;;;;;;;22.70;99.90;;;;;;5075378;28;19909;-72
2022/02/21 09:34:32;;;;;;;;;;;22.70;99.90;;;;;;5075702;28;19915;-72
2022/02/21 09:36:58;;;;;;;;;;;22.80;99.90;;;;;;5075565;28;19912;-72
2022/02/21 09:39:25;;;;;;;;;;;22.70;99.90;;;;;;5075698;28;19961;-72
2022/02/21 09:41:53;;;;;;;;;;;22.70;99.90;;;;;;5075693;28;19912;-72
2022/02/21 09:44:19;;;;;;;;;;;22.70;99.90;;;;;;5074948;28;19999;-72
2022/02/21 09:46:47;;;;;;;;;;;22.60;99.90;;;;;;5075443;28;19916;-72
2022/02/21 09:49:16;;;;;;;;;;;22.70;99.90;;;;;;5072829;28;19959;-72
2022/02/21 09:51:43;;;;;;;;;;;22.60;99.90;;;;;;5073394;28;19912;-70
2022/02/21 09:54:13;;;;;;;;;;;22.60;99.90;;;;;;5073015;28;19938;-71
2022/02/21 09:56:42;;;;;;;;;;;22.60;99.90;;;;;;5073584;28;19950;-71
2022/02/21 09:59:09;;;;;;;;;;;22.60;99.90;;;;;;5072619;28;19935;-70
2022/02/21 10:01:39;;;;;;;;;;;22.60;99.90;;;;;;5072954;28;19977;-70
2022/02/21 10:04:06;;;;;;;;;;;22.60;99.90;;;;;;5072475;28;20367;-71
2022/02/21 10:06:33;;;;;;;;;;;22.70;99.90;;;;;;5072995;28;19915;-71
2022/02/21 10:09:10;;;;;;;;;;;22.70;99.90;;;;;;5072973;28;20355;-71
2022/02/21 10:11:41;;;;;;;;;;;22.60;99.90;;;;;;5073234;28;19998;-71
2022/02/21 10:14:08;;;;;;;;;;;22.60;99.90;;;;;;5072248;28;19912;-72
2022/02/21 10:16:47;;;;;;;;;;;22.70;99.90;;;;;;5105052;28;19955;-71
2022/02/21 10:19:13;;;;;;;;;;;22.70;99.90;;;;;;5072525;28;19923;-71
2022/02/21 10:21:51;;;;;;;;;;;22.80;99.90;;;;;;5072897;28;19913;-71
2022/02/21 10:24:17;;;;;;;;;;;22.70;99.90;;;;;;5072403;28;19946;-70
2022/02/21 10:26:44;;;;;;;;;;;22.80;99.90;;;;;;5072731;28;19916;-72
2022/02/21 10:29:11;;;;;;;;;;;22.80;99.90;;;;;;5071796;28;19909;-72
2022/02/21 10:31:38;;;;;;;;;;;22.80;99.90;;;;;;5072622;28;19912;-71
2022/02/21 10:34:06;;;;;;;;;;;22.80;99.90;;;;;;5072306;28;19908;-72
2022/02/21 10:36:38;;;;;;;;;;;22.80;99.90;;;;;;5073290;28;19938;-72
2022/02/21 10:39:15;;;;;;;;;;;22.90;99.90;;;;;;5072478;28;19924;-72
2022/02/21 10:41:42;;;;;;;;;;;23.00;99.90;;;;;;5072227;28;19915;-72
2022/02/21 10:44:27;;;;;;;;;;;23.00;99.90;;;;;;5071780;28;19912;-72
2022/02/21 10:47:02;;;;;;;;;;;23.00;99.90;;;;;;5072430;28;19912;-72
2022/02/21 10:49:30;;;;;;;;;;;23.00;99.90;;;;;;5072191;28;19916;-72
2022/02/21 10:51:57;;;;;;;;;;;23.00;99.90;;;;;;5072029;28;19909;-72
2022/02/21 10:54:31;;;;;;;;;;;23.00;99.90;;;;;;5072412;28;19909;-71
2022/02/21 10:56:58;;;;;;;;;;;23.00;99.90;;;;;;5071964;28;19985;-70
2022/02/21 10:59:29;;;;;;;;;;;23.10;99.90;;;;;;5071499;28;19916;-71
2022/02/21 11:01:56;;;;;;;;;;;23.00;99.90;;;;;;5071776;28;20439;-71
2022/02/21 11:04:24;;;;;;;;;;;23.00;99.90;;;;;;5071897;28;19927;-71
2022/02/21 11:06:51;;;;;;;;;;;23.00;99.90;;;;;;5071920;28;19909;-72
2022/02/21 11:09:19;;;;;;;;;;;22.90;99.90;;;;;;5072146;28;19955;-71
2022/02/21 11:11:50;;;;;;;;;;;22.90;99.90;;;;;;5073444;28;20326;-71
2022/02/21 11:14:19;;;;;;;;;;;22.90;99.90;;;;;;5072899;28;19920;-71
2022/02/21 11:16:49;;;;;;;;;;;22.90;99.90;;;;;;5075069;28;19953;-71
2022/02/21 11:19:19;;;;;;;;;;;22.90;99.90;;;;;;5071475;28;19921;-71
2022/02/21 11:21:47;;;;;;;;;;;22.90;99.90;;;;;;5071115;28;19908;-71
2022/02/21 11:24:15;;;;;;;;;;;22.80;99.90;;;;;;5071710;28;20402;-71
2022/02/21 11:26:56;;;;;;;;;;;22.80;99.90;;;;;;5071701;28;19959;-71
2022/02/21 11:29:22;;;;;;;;;;;22.80;99.90;;;;;;5070942;28;19908;-71
2022/02/21 11:31:49;;;;;;;;;;;22.80;99.90;;;;;;5071218;28;20283;-71
2022/02/21 11:34:16;;;;;;;;;;;22.70;99.90;;;;;;5071173;28;19915;-71
2022/02/21 11:36:45;;;;;;;;;;;22.70;99.90;;;;;;5070878;28;19908;-71
2022/02/21 11:39:23;;;;;;;;;;;22.70;99.90;;;;;;5071058;28;19974;-71
2022/02/21 11:42:02;;;;;;;;;;;22.70;99.90;;;;;;5071027;28;19935;-71
2022/02/21 11:44:29;;;;;;;;;;;22.80;99.90;;;;;;5070593;28;20003;-72
2022/02/21 11:47:22;;;;;;;;;;;22.80;99.90;;;;;;5070799;28;19913;-70
2022/02/21 11:49:55;;;;;;;;;;;22.80;99.90;;;;;;5062117;28;19959;-70
2022/02/21 11:52:32;;;;;;;;;;;22.80;99.90;;;;;;5071119;28;20283;-71
2022/02/21 11:54:59;;;;;;;;;;;22.80;99.90;;;;;;5070621;28;19916;-71
2022/02/21 11:57:36;;;;;;;;;;;22.90;99.90;;;;;;5070998;28;19915;-71
2022/02/21 12:00:21;;;;;;;;;;;22.90;99.90;;;;;;5070095;28;19924;-71
2022/02/21 12:03:06;;;;;;;;;;;23.00;99.90;;;;;;5070265;28;19970;-71
2022/02/21 12:05:32;;;;;;;;;;;23.00;99.90;;;;;;5070227;28;19916;-72
2022/02/21 12:07:59;;;;;;;;;;;22.90;99.90;;;;;;5070144;28;19987;-71
2022/02/21 12:10:26;;;;;;;;;;;22.90;99.90;;;;;;5070106;28;19922;-71
2022/02/21 12:12:53;;;;;;;;;;;23.00;99.90;;;;;;5070247;28;19908;-71
2022/02/21 12:15:20;;;;;;;;;;;23.00;99.90;;;;;;5069978;28;19916;-71
2022/02/21 12:17:47;;;;;;;;;;;23.00;99.90;;;;;;5069863;28;19931;-71
2022/02/21 12:20:32;;;;;;;;;;;23.00;99.90;;;;;;5069842;28;19932;-71
2022/02/21 12:23:07;;;;;;;;;;;22.90;99.90;;;;;;5069736;28;19943;-72
2022/02/21 12:25:43;;;;;;;;;;;22.90;99.90;;;;;;5069895;28;19908;-72
2022/02/21 12:28:13;;;;;;;;;;;22.90;99.90;;;;;;5069424;28;19919;-71
2022/02/21 12:30:41;;;;;;;;;;;22.90;99.90;;;;;;5069789;28;19918;-71
2022/02/21 12:33:08;;;;;;;;;;;23.00;99.90;;;;;;5069658;28;19935;-71
2022/02/21 12:36:07;;;;;;;;;;;23.00;99.90;;;;;;5069598;28;19938;-71
2022/02/21 12:38:35;;;;;;;;;;;23.00;99.90;;;;;;5057255;28;20047;-71
2022/02/21 12:41:04;;;;;;;;;;;23.00;99.90;;;;;;5069217;28;19908;-71
2022/02/21 12:43:43;;;;;;;;;;;23.00;99.90;;;;;;5069663;28;19908;-71
2022/02/21 12:46:10;;;;;;;;;;;23.00;99.90;;;;;;5069549;28;19921;-71
2022/02/21 12:48:37;;;;;;;;;;;23.00;99.90;;;;;;5068272;28;19966;-71
2022/02/21 12:51:04;;;;;;;;;;;22.80;99.90;;;;;;5069593;28;20234;-71
2022/02/21 12:53:31;;;;;;;;;;;22.80;99.90;;;;;;5069238;28;19931;-71
2022/02/21 12:56:03;;;;;;;;;;;22.70;99.90;;;;;;5069565;28;19912;-71
2022/02/21 12:58:37;;;;;;;;;;;22.80;99.90;;;;;;5069524;28;20411;-71
2022/02/21 13:01:14;;;;;;;;;;;22.80;99.90;;;;;;4946135;28;3515236;-71
2022/02/21 13:03:40;;;;;;;;;;;22.70;99.90;;;;;;5070346;28;19917;-70
2022/02/21 13:06:11;;;;;;;;;;;22.70;99.90;;;;;;5069862;28;19912;-70
2022/02/21 13:08:38;;;;;;;;;;;22.80;99.90;;;;;;5070190;28;20360;-70
2022/02/21 13:11:06;;;;;;;;;;;22.70;99.90;;;;;;5070225;28;19909;-70
2022/02/21 13:13:41;;;;;;;;;;;22.70;99.90;;;;;;5070191;28;20282;-71
2022/02/21 13:16:08;;;;;;;;;;;22.70;99.90;;;;;;5070074;28;20012;-71
2022/02/21 13:18:48;;;;;;;;;;;22.70;99.90;;;;;;5069714;28;19917;-71
2022/02/21 13:21:26;;;;;;;;;;;22.70;99.90;;;;;;5070141;28;20015;-71
2022/02/21 13:23:53;;;;;;;;;;;22.70;99.90;;;;;;5069821;28;19912;-71
2022/02/21 13:26:20;;;;;;;;;;;22.60;99.90;;;;;;5070052;28;19916;-71
2022/02/21 13:28:48;;;;;;;;;;;22.60;99.90;;;;;;5070087;28;20066;-71
2022/02/21 13:31:15;;;;;;;;;;;22.60;99.90;;;;;;5070069;28;19909;-71
2022/02/21 13:33:43;;;;;;;;;;;22.60;99.90;;;;;;5069512;28;19912;-70
2022/02/21 13:36:09;;;;;;;;;;;22.60;99.90;;;;;;5069687;28;19908;-70
2022/02/21 13:38:36;;;;;;;;;;;22.60;99.90;;;;;;5070059;28;19916;-70
2022/02/21 13:41:03;;;;;;;;;;;22.60;99.90;;;;;;5069900;28;19973;-70
2022/02/21 13:43:30;;;;;;;;;;;22.60;99.90;;;;;;5069941;28;20267;-71
2022/02/21 13:45:56;;;;;;;;;;;22.70;99.90;;;;;;5069416;28;20007;-71
2022/02/21 13:48:27;;;;;;;;;;;22.70;99.90;;;;;;5069642;28;19920;-70
2022/02/21 13:50:54;;;;;;;;;;;22.70;99.90;;;;;;5069869;28;20011;-71
2022/02/21 13:53:30;;;;;;;;;;;22.70;99.90;;;;;;5069892;28;19908;-70
2022/02/21 13:56:11;;;;;;;;;;;22.80;99.90;;;;;;5069631;28;19909;-70
2022/02/21 13:58:44;;;;;;;;;;;22.90;99.90;;;;;;5069725;28;19916;-71
2022/02/21 14:01:14;;;;;;;;;;;22.80;99.90;;;;;;5073222;28;19924;-71
2022/02/21 14:03:44;;;;;;;;;;;22.90;99.90;;;;;;5073329;28;19920;-71
2022/02/21 14:06:11;;;;;;;;;;;22.90;99.90;;;;;;5073445;28;19939;-72
2022/02/21 14:08:39;;;;;;;;;;;23.00;99.90;;;;;;5073323;28;19908;-71
2022/02/21 14:11:06;;;;;;;;;;;23.00;99.90;;;;;;5073219;28;19912;-71
2022/02/21 14:13:33;;;;;;;;;;;23.00;99.90;;;;;;5072941;28;19908;-71
2022/02/21 14:16:00;;;;;;;;;;;23.00;99.90;;;;;;5073077;28;19917;-71
2022/02/21 14:18:27;;;;;;;;;;;23.00;99.90;;;;;;5073016;28;19913;-71
2022/02/21 14:20:53;;;;;;;;;;;23.00;99.90;;;;;;5073060;28;20001;-71
2022/02/21 14:23:20;;;;;;;;;;;23.10;99.90;;;;;;5072946;28;20690;-71
2022/02/21 14:25:49;;;;;;;;;;;23.00;99.90;;;;;;5072598;28;19908;-71